Camden, WV (26338)

7:11 PM EDT on September 23, 2014 (GMT -0400)
Quirky Towers, Vadis | Change Station
CLOSE
Current Station
Personal Weather Station
Location: Alum Bridge, WV
Elevation: 837 ft
Nearby Weather Stations

Elev 837 ft 39.04 °N, 80.71 °W | Updated 25 seconds ago

Clear
Clear
59.4 °F
Feels Like 59.4 °F
N
0.0
Wind Variable Wind from NE
Gusts 0.0 mph

Today
High -- | Low -- °F
--% Chance of Precip.
Yesterday
High -- | Low -- °F
Precip. -- in
7:11 AM 7:17 PM
Waning Crescent, 0% visible
Pressure 30.31 in
Visibility 10.0 miles
Clouds Clear
Dew Point 54 °F
Humidity 83%
Rainfall 0.00 in
Snow Depth Not available.
UV 0 out of 12
Pollen 3.10 out of 12
Air Quality Not available.
Flu Activity Not available.
METAR KW22 232255Z AUTO 00000KT 10SM CLR 17/10 A3031 RMK AO2

More Conditions Fewer Conditions

Pressure 30.31 in
Visibility 10.0 miles
Clouds Clear
Dew Point 54 °F
Humidity 83%
Rainfall 0.00 in
Snow Depth Not available.
UV 0 out of 12
Pollen 3.10 out of 12
Air Quality Not available.
Flu Activity Not available.
METAR KW22 232255Z AUTO 00000KT 10SM CLR 17/10 A3031 RMK AO2

More Conditions Fewer Conditions

10-Day Weather Forecast

Almanac

Astronomy

Sep. 23, 2014 Rise Set
Actual Time 7:11 AM EDT 7:17 PM EDT
Civil Twilight 6:44 AM EDT 7:44 PM EDT
Nautical Twilight 6:13 AM EDT 8:15 PM EDT
Astronomical Twilight 5:41 AM EDT 8:47 PM EDT
Moon 6:33 AM EDT 6:56 PM EDT
Length of Visible Light 13h 00m
Length of Day
12h 06m
Tomorrow will be 2m 32s shorter.
Waning Crescent, 0% of the Moon is Illuminated
Today
Waning Crescent
Sep 24
New
Oct 1
First Quarter
Oct 8
Full
Oct 15
Last Quarter

Today's Extremes

State Highs State Lows

Community

WunderPhotos

Upload Photos

1,755,824 photos uploaded!

WunderBlogs® & News

Nearby

Snow Depth

Station Depth Elevation
No new snow has been reported.

Earthquake Activity

City Distance Mag. Time & Date
No recent earthquake activity has been reported nearby.
Minimum magnitude displayed is 2.5.

Coastal Water Temperatures

Place Temperature
No Stations Reporting

Nearby Weather Stations